sensor_id;sensor_type;location;lat;lon;timestamp;temperature;humidity
25112;DHT22;13092;51.996;4.458;2024-03-23T00:55:26;9.30;99.90
25112;DHT22;13092;51.996;4.458;2024-03-23T00:57:56;9.20;99.90
25112;DHT22;13092;51.996;4.458;2024-03-23T01:00:22;9.20;99.90
25112;DHT22;13092;51.996;4.458;2024-03-23T01:02:49;9.10;99.90
25112;DHT22;13092;51.996;4.458;2024-03-23T01:05:16;9.00;99.90
25112;DHT22;13092;51.996;4.458;2024-03-23T01:07:43;9.00;99.90
25112;DHT22;13092;51.996;4.458;2024-03-23T01:10:11;8.90;99.90
25112;DHT22;13092;51.996;4.458;2024-03-23T01:12:38;8.90;99.90
25112;DHT22;13092;51.996;4.458;2024-03-23T01:15:05;8.90;99.90
25112;DHT22;13092;51.996;4.458;2024-03-23T01:17:32;8.90;99.90
25112;DHT22;13092;51.996;4.458;2024-03-23T01:19:58;8.90;99.90
25112;DHT22;13092;51.996;4.458;2024-03-23T01:22:26;8.80;99.90
25112;DHT22;13092;51.996;4.458;2024-03-23T01:24:52;9.00;99.90
25112;DHT22;13092;51.996;4.458;2024-03-23T01:27:20;8.70;99.90
25112;DHT22;13092;51.996;4.458;2024-03-23T01:29:48;8.80;99.90
25112;DHT22;13092;51.996;4.458;2024-03-23T01:32:18;8.80;99.90
25112;DHT22;13092;51.996;4.458;2024-03-23T01:34:44;8.70;99.90
25112;DHT22;13092;51.996;4.458;2024-03-23T01:37:11;8.80;99.90
25112;DHT22;13092;51.996;4.458;2024-03-23T01:39:37;8.90;99.90
25112;DHT22;13092;51.996;4.458;2024-03-23T01:42:05;8.70;99.90
25112;DHT22;13092;51.996;4.458;2024-03-23T01:44:33;8.70;99.90
25112;DHT22;13092;51.996;4.458;2024-03-23T01:47:00;8.60;99.90
25112;DHT22;13092;51.996;4.458;2024-03-23T01:49:26;8.50;99.90
25112;DHT22;13092;51.996;4.458;2024-03-23T01:51:56;8.60;99.90
25112;DHT22;13092;51.996;4.458;2024-03-23T01:54:22;8.30;99.90
25112;DHT22;13092;51.996;4.458;2024-03-23T01:56:50;8.50;99.90
25112;DHT22;13092;51.996;4.458;2024-03-23T01:59:16;8.60;99.90
25112;DHT22;13092;51.996;4.458;2024-03-23T02:01:45;8.50;99.90
25112;DHT22;13092;51.996;4.458;2024-03-23T02:04:11;8.50;99.90
25112;DHT22;13092;51.996;4.458;2024-03-23T02:06:38;8.60;99.90
25112;DHT22;13092;51.996;4.458;2024-03-23T02:09:04;8.70;99.90
25112;DHT22;13092;51.996;4.458;2024-03-23T02:11:32;8.60;99.90
25112;DHT22;13092;51.996;4.458;2024-03-23T02:13:58;8.50;99.90
25112;DHT22;13092;51.996;4.458;2024-03-23T02:16:25;8.50;99.90
25112;DHT22;13092;51.996;4.458;2024-03-23T02:18:53;8.40;99.90
25112;DHT22;13092;51.996;4.458;2024-03-23T02:21:20;8.40;99.90
25112;DHT22;13092;51.996;4.458;2024-03-23T02:23:47;8.50;99.90
25112;DHT22;13092;51.996;4.458;2024-03-23T02:26:15;8.40;99.90
25112;DHT22;13092;51.996;4.458;2024-03-23T02:28:42;8.40;99.90
25112;DHT22;13092;51.996;4.458;2024-03-23T02:31:10;8.40;99.90
25112;DHT22;13092;51.996;4.458;2024-03-23T02:33:36;8.30;99.90
25112;DHT22;13092;51.996;4.458;2024-03-23T02:36:04;8.30;99.90
25112;DHT22;13092;51.996;4.458;2024-03-23T02:38:30;8.30;99.90
25112;DHT22;13092;51.996;4.458;2024-03-23T02:41:03;8.30;99.90
25112;DHT22;13092;51.996;4.458;2024-03-23T02:43:29;8.20;99.90
25112;DHT22;13092;51.996;4.458;2024-03-23T02:45:57;8.30;99.90
25112;DHT22;13092;51.996;4.458;2024-03-23T02:48:23;8.20;99.90
25112;DHT22;13092;51.996;4.458;2024-03-23T02:50:50;8.20;99.90
25112;DHT22;13092;51.996;4.458;2024-03-23T02:53:16;8.10;99.90
25112;DHT22;13092;51.996;4.458;2024-03-23T02:55:44;8.20;99.90
25112;DHT22;13092;51.996;4.458;2024-03-23T02:58:11;8.40;99.90
25112;DHT22;13092;51.996;4.458;2024-03-23T03:00:38;8.40;99.90
25112;DHT22;13092;51.996;4.458;2024-03-23T03:03:05;8.20;99.90
25112;DHT22;13092;51.996;4.458;2024-03-23T03:05:33;8.20;99.90
25112;DHT22;13092;51.996;4.458;2024-03-23T03:07:59;8.10;99.90
25112;DHT22;13092;51.996;4.458;2024-03-23T03:10:26;8.10;99.90
25112;DHT22;13092;51.996;4.458;2024-03-23T03:12:53;8.10;99.90
25112;DHT22;13092;51.996;4.458;2024-03-23T03:15:21;8.10;99.90
25112;DHT22;13092;51.996;4.458;2024-03-23T03:17:47;8.10;99.90
25112;DHT22;13092;51.996;4.458;2024-03-23T03:20:15;8.20;99.90
25112;DHT22;13092;51.996;4.458;2024-03-23T03:22:41;8.00;99.90
25112;DHT22;13092;51.996;4.458;2024-03-23T03:25:09;8.00;99.90
25112;DHT22;13092;51.996;4.458;2024-03-23T03:27:35;8.00;99.90
25112;DHT22;13092;51.996;4.458;2024-03-23T03:30:02;8.00;99.90
25112;DHT22;13092;51.996;4.458;2024-03-23T03:32:33;8.10;99.90
25112;DHT22;13092;51.996;4.458;2024-03-23T03:35:01;8.00;99.90
25112;DHT22;13092;51.996;4.458;2024-03-23T03:37:27;8.10;99.90
25112;DHT22;13092;51.996;4.458;2024-03-23T03:39:54;8.20;99.90
25112;DHT22;13092;51.996;4.458;2024-03-23T03:42:20;8.10;99.90
25112;DHT22;13092;51.996;4.458;2024-03-23T03:44:48;8.10;99.90
25112;DHT22;13092;51.996;4.458;2024-03-23T03:47:14;8.40;99.90
25112;DHT22;13092;51.996;4.458;2024-03-23T03:49:42;8.10;99.90
25112;DHT22;13092;51.996;4.458;2024-03-23T03:52:08;8.10;99.90
25112;DHT22;13092;51.996;4.458;2024-03-23T03:54:35;8.20;99.90
25112;DHT22;13092;51.996;4.458;2024-03-23T03:57:02;8.20;99.90
25112;DHT22;13092;51.996;4.458;2024-03-23T03:59:29;8.10;99.90
25112;DHT22;13092;51.996;4.458;2024-03-23T04:01:55;8.10;99.90
25112;DHT22;13092;51.996;4.458;2024-03-23T04:04:22;8.10;99.90
25112;DHT22;13092;51.996;4.458;2024-03-23T04:06:58;8.10;99.90
25112;DHT22;13092;51.996;4.458;2024-03-23T04:09:25;8.30;99.90
25112;DHT22;13092;51.996;4.458;2024-03-23T04:11:51;8.10;99.90
25112;DHT22;13092;51.996;4.458;2024-03-23T04:14:19;8.10;99.90
25112;DHT22;13092;51.996;4.458;2024-03-23T04:16:45;8.10;99.90
25112;DHT22;13092;51.996;4.458;2024-03-23T04:19:12;8.20;99.90
25112;DHT22;13092;51.996;4.458;2024-03-23T04:21:38;8.10;99.90
25112;DHT22;13092;51.996;4.458;2024-03-23T04:24:07;8.20;99.90
25112;DHT22;13092;51.996;4.458;2024-03-23T04:26:40;8.00;99.90
25112;DHT22;13092;51.996;4.458;2024-03-23T04:29:08;8.10;99.90
25112;DHT22;13092;51.996;4.458;2024-03-23T04:31:35;8.10;99.90
25112;DHT22;13092;51.996;4.458;2024-03-23T04:34:01;8.10;99.90
25112;DHT22;13092;51.996;4.458;2024-03-23T04:36:29;8.00;99.90
25112;DHT22;13092;51.996;4.458;2024-03-23T04:38:56;8.00;99.90
25112;DHT22;13092;51.996;4.458;2024-03-23T04:41:25;7.90;99.90
25112;DHT22;13092;51.996;4.458;2024-03-23T04:43:52;7.90;99.90
25112;DHT22;13092;51.996;4.458;2024-03-23T04:46:19;7.90;99.90
25112;DHT22;13092;51.996;4.458;2024-03-23T04:48:47;7.90;99.90
25112;DHT22;13092;51.996;4.458;2024-03-23T04:51:20;7.90;99.90
25112;DHT22;13092;51.996;4.458;2024-03-23T04:53:50;7.80;99.90
25112;DHT22;13092;51.996;4.458;2024-03-23T04:56:17;7.80;99.90
25112;DHT22;13092;51.996;4.458;2024-03-23T04:58:46;8.00;99.90
25112;DHT22;13092;51.996;4.458;2024-03-23T05:01:14;7.80;99.90
25112;DHT22;13092;51.996;4.458;2024-03-23T05:03:41;7.90;99.90
25112;DHT22;13092;51.996;4.458;2024-03-23T05:06:07;8.00;99.90
25112;DHT22;13092;51.996;4.458;2024-03-23T05:08:34;8.10;99.90
25112;DHT22;13092;51.996;4.458;2024-03-23T05:11:00;8.00;99.90
25112;DHT22;13092;51.996;4.458;2024-03-23T05:13:28;8.10;99.90
25112;DHT22;13092;51.996;4.458;2024-03-23T05:15:56;8.10;99.90
25112;DHT22;13092;51.996;4.458;2024-03-23T05:18:23;8.30;99.90
25112;DHT22;13092;51.996;4.458;2024-03-23T05:20:55;8.10;99.90
25112;DHT22;13092;51.996;4.458;2024-03-23T05:23:23;7.90;99.90
25112;DHT22;13092;51.996;4.458;2024-03-23T05:25:49;8.20;99.90
25112;DHT22;13092;51.996;4.458;2024-03-23T05:28:17;8.20;99.90
25112;DHT22;13092;51.996;4.458;2024-03-23T05:30:43;8.20;99.90
25112;DHT22;13092;51.996;4.458;2024-03-23T05:33:12;8.20;99.90
25112;DHT22;13092;51.996;4.458;2024-03-23T05:35:38;8.30;99.90
25112;DHT22;13092;51.996;4.458;2024-03-23T05:38:06;8.30;99.90
25112;DHT22;13092;51.996;4.458;2024-03-23T05:40:32;8.20;99.90
25112;DHT22;13092;51.996;4.458;2024-03-23T05:43:03;8.00;99.90
25112;DHT22;13092;51.996;4.458;2024-03-23T05:45:29;8.20;99.90
25112;DHT22;13092;51.996;4.458;2024-03-23T05:47:56;8.10;99.90
25112;DHT22;13092;51.996;4.458;2024-03-23T05:50:24;8.10;99.90
25112;DHT22;13092;51.996;4.458;2024-03-23T05:52:51;8.30;99.90
25112;DHT22;13092;51.996;4.458;2024-03-23T05:55:19;8.20;99.90
25112;DHT22;13092;51.996;4.458;2024-03-23T05:57:45;8.10;99.90
25112;DHT22;13092;51.996;4.458;2024-03-23T06:00:12;8.10;99.90
25112;DHT22;13092;51.996;4.458;2024-03-23T06:02:42;8.00;99.90
25112;DHT22;13092;51.996;4.458;2024-03-23T06:05:10;8.00;99.90
25112;DHT22;13092;51.996;4.458;2024-03-23T06:07:38;8.00;99.90
25112;DHT22;13092;51.996;4.458;2024-03-23T06:10:06;8.00;99.90
25112;DHT22;13092;51.996;4.458;2024-03-23T06:12:32;8.00;99.90
25112;DHT22;13092;51.996;4.458;2024-03-23T06:15:00;8.10;99.90
25112;DHT22;13092;51.996;4.458;2024-03-23T06:17:26;8.10;99.90
25112;DHT22;13092;51.996;4.458;2024-03-23T06:19:53;8.10;99.90
25112;DHT22;13092;51.996;4.458;2024-03-23T06:22:19;8.10;99.90
25112;DHT22;13092;51.996;4.458;2024-03-23T06:24:48;8.10;99.90
25112;DHT22;13092;51.996;4.458;2024-03-23T06:27:14;8.10;99.90
25112;DHT22;13092;51.996;4.458;2024-03-23T06:29:41;8.10;99.90
25112;DHT22;13092;51.996;4.458;2024-03-23T06:32:08;8.10;99.90
25112;DHT22;13092;51.996;4.458;2024-03-23T06:34:35;8.20;99.90
25112;DHT22;13092;51.996;4.458;2024-03-23T06:37:02;8.20;99.90
25112;DHT22;13092;51.996;4.458;2024-03-23T06:39:29;8.10;99.90
25112;DHT22;13092;51.996;4.458;2024-03-23T06:41:57;8.10;99.90
25112;DHT22;13092;51.996;4.458;2024-03-23T06:44:23;8.10;99.90
25112;DHT22;13092;51.996;4.458;2024-03-23T06:46:51;8.30;99.90
25112;DHT22;13092;51.996;4.458;2024-03-23T06:49:17;8.20;99.90
25112;DHT22;13092;51.996;4.458;2024-03-23T06:51:45;8.30;99.90
25112;DHT22;13092;51.996;4.458;2024-03-23T06:54:11;8.30;99.90
25112;DHT22;13092;51.996;4.458;2024-03-23T06:56:38;8.40;99.90
25112;DHT22;13092;51.996;4.458;2024-03-23T06:59:06;8.50;99.90
25112;DHT22;13092;51.996;4.458;2024-03-23T07:01:33;8.40;99.90
25112;DHT22;13092;51.996;4.458;2024-03-23T07:04:01;8.30;99.90
25112;DHT22;13092;51.996;4.458;2024-03-23T07:06:28;8.50;99.90
25112;DHT22;13092;51.996;4.458;2024-03-23T07:08:54;8.50;99.90
25112;DHT22;13092;51.996;4.458;2024-03-23T07:11:22;8.40;99.90
25112;DHT22;13092;51.996;4.458;2024-03-23T07:13:50;8.20;99.90
25112;DHT22;13092;51.996;4.458;2024-03-23T07:16:19;8.40;99.90
25112;DHT22;13092;51.996;4.458;2024-03-23T07:18:45;8.40;99.90
25112;DHT22;13092;51.996;4.458;2024-03-23T07:21:14;8.20;99.90
25112;DHT22;13092;51.996;4.458;2024-03-23T07:23:42;8.40;99.90
25112;DHT22;13092;51.996;4.458;2024-03-23T07:26:11;8.50;99.90
25112;DHT22;13092;51.996;4.458;2024-03-23T07:28:37;8.50;99.90
25112;DHT22;13092;51.996;4.458;2024-03-23T07:31:10;8.50;99.90
25112;DHT22;13092;51.996;4.458;2024-03-23T07:33:42;8.50;99.90
25112;DHT22;13092;51.996;4.458;2024-03-23T07:36:10;8.50;99.90
25112;DHT22;13092;51.996;4.458;2024-03-23T07:38:37;8.60;99.90
25112;DHT22;13092;51.996;4.458;2024-03-23T07:41:05;8.40;99.90
25112;DHT22;13092;51.996;4.458;2024-03-23T07:43:31;8.60;99.90
25112;DHT22;13092;51.996;4.458;2024-03-23T07:45:59;8.50;99.90
25112;DHT22;13092;51.996;4.458;2024-03-23T07:48:25;8.60;99.90
25112;DHT22;13092;51.996;4.458;2024-03-23T07:50:59;8.60;99.90
25112;DHT22;13092;51.996;4.458;2024-03-23T07:53:25;8.70;99.90
25112;DHT22;13092;51.996;4.458;2024-03-23T07:55:57;8.50;99.90
25112;DHT22;13092;51.996;4.458;2024-03-23T07:58:24;8.60;99.90
25112;DHT22;13092;51.996;4.458;2024-03-23T08:00:51;8.40;99.90
25112;DHT22;13092;51.996;4.458;2024-03-23T08:03:17;8.50;99.90
25112;DHT22;13092;51.996;4.458;2024-03-23T08:05:45;8.70;99.90
25112;DHT22;13092;51.996;4.458;2024-03-23T08:08:12;8.70;99.90
25112;DHT22;13092;51.996;4.458;2024-03-23T08:10:48;9.00;99.90
25112;DHT22;13092;51.996;4.458;2024-03-23T08:13:16;8.80;99.90
25112;DHT22;13092;51.996;4.458;2024-03-23T08:15:45;8.80;99.90
25112;DHT22;13092;51.996;4.458;2024-03-23T08:18:12;8.70;99.90
25112;DHT22;13092;51.996;4.458;2024-03-23T08:20:41;8.70;99.90
25112;DHT22;13092;51.996;4.458;2024-03-23T08:23:07;8.70;99.90
25112;DHT22;13092;51.996;4.458;2024-03-23T08:25:36;8.70;99.90
25112;DHT22;13092;51.996;4.458;2024-03-23T08:28:02;8.80;99.90
25112;DHT22;13092;51.996;4.458;2024-03-23T08:30:29;8.90;99.90
25112;DHT22;13092;51.996;4.458;2024-03-23T08:32:56;9.00;99.90
25112;DHT22;13092;51.996;4.458;2024-03-23T08:35:23;9.10;99.90
25112;DHT22;13092;51.996;4.458;2024-03-23T08:37:49;9.10;99.90
25112;DHT22;13092;51.996;4.458;2024-03-23T08:40:19;9.00;99.90
25112;DHT22;13092;51.996;4.458;2024-03-23T08:42:47;9.00;99.90
25112;DHT22;13092;51.996;4.458;2024-03-23T08:45:14;9.00;99.90
25112;DHT22;13092;51.996;4.458;2024-03-23T08:47:40;9.00;99.90
25112;DHT22;13092;51.996;4.458;2024-03-23T08:50:08;8.90;99.90
25112;DHT22;13092;51.996;4.458;2024-03-23T08:52:34;8.70;99.90
25112;DHT22;13092;51.996;4.458;2024-03-23T08:55:01;8.70;99.90
25112;DHT22;13092;51.996;4.458;2024-03-23T08:57:28;8.70;99.90
25112;DHT22;13092;51.996;4.458;2024-03-23T08:59:57;8.70;99.90
25112;DHT22;13092;51.996;4.458;2024-03-23T09:02:23;8.80;99.90
25112;DHT22;13092;51.996;4.458;2024-03-23T09:04:50;8.80;99.90
25112;DHT22;13092;51.996;4.458;2024-03-23T09:07:18;8.90;99.90
25112;DHT22;13092;51.996;4.458;2024-03-23T09:09:45;8.80;99.90
25112;DHT22;13092;51.996;4.458;2024-03-23T09:12:12;9.00;99.90
25112;DHT22;13092;51.996;4.458;2024-03-23T09:14:39;9.00;99.90
25112;DHT22;13092;51.996;4.458;2024-03-23T09:17:07;8.90;99.90
25112;DHT22;13092;51.996;4.458;2024-03-23T09:19:35;8.80;99.90
25112;DHT22;13092;51.996;4.458;2024-03-23T09:22:02;8.90;99.90
25112;DHT22;13092;51.996;4.458;2024-03-23T09:24:31;9.00;99.90
25112;DHT22;13092;51.996;4.458;2024-03-23T09:26:58;9.00;99.90
25112;DHT22;13092;51.996;4.458;2024-03-23T09:29:25;9.00;99.90
25112;DHT22;13092;51.996;4.458;2024-03-23T09:31:51;9.10;99.90
25112;DHT22;13092;51.996;4.458;2024-03-23T09:34:23;9.00;99.90
25112;DHT22;13092;51.996;4.458;2024-03-23T09:36:51;8.90;99.90
25112;DHT22;13092;51.996;4.458;2024-03-23T09:39:18;9.00;99.90
25112;DHT22;13092;51.996;4.458;2024-03-23T09:41:47;9.10;99.90
25112;DHT22;13092;51.996;4.458;2024-03-23T09:44:15;9.10;99.90
25112;DHT22;13092;51.996;4.458;2024-03-23T09:46:41;9.20;99.90
25112;DHT22;13092;51.996;4.458;2024-03-23T09:49:08;9.10;99.90
25112;DHT22;13092;51.996;4.458;2024-03-23T09:51:37;9.10;99.90
25112;DHT22;13092;51.996;4.458;2024-03-23T09:54:05;9.10;99.90
25112;DHT22;13092;51.996;4.458;2024-03-23T09:56:32;9.10;99.90
25112;DHT22;13092;51.996;4.458;2024-03-23T09:59:03;9.30;99.90
25112;DHT22;13092;51.996;4.458;2024-03-23T10:01:30;9.20;99.90
25112;DHT22;13092;51.996;4.458;2024-03-23T10:03:57;9.30;99.90
25112;DHT22;13092;51.996;4.458;2024-03-23T10:06:24;9.30;99.90
25112;DHT22;13092;51.996;4.458;2024-03-23T10:08:53;9.30;99.90
25112;DHT22;13092;51.996;4.458;2024-03-23T10:11:21;9.30;99.90
25112;DHT22;13092;51.996;4.458;2024-03-23T10:13:48;9.20;99.90
25112;DHT22;13092;51.996;4.458;2024-03-23T10:16:21;9.20;99.90
25112;DHT22;13092;51.996;4.458;2024-03-23T10:18:49;9.10;99.90
25112;DHT22;13092;51.996;4.458;2024-03-23T10:21:16;9.10;99.90
25112;DHT22;13092;51.996;4.458;2024-03-23T10:23:44;9.30;99.90
25112;DHT22;13092;51.996;4.458;2024-03-23T10:26:19;9.40;99.90
25112;DHT22;13092;51.996;4.458;2024-03-23T10:28:54;9.40;99.90
25112;DHT22;13092;51.996;4.458;2024-03-23T10:31:24;9.40;99.90
25112;DHT22;13092;51.996;4.458;2024-03-23T10:33:51;9.30;99.90
25112;DHT22;13092;51.996;4.458;2024-03-23T10:36:20;9.40;99.90
25112;DHT22;13092;51.996;4.458;2024-03-23T10:38:47;9.60;99.90
25112;DHT22;13092;51.996;4.458;2024-03-23T10:41:15;9.60;99.90
25112;DHT22;13092;51.996;4.458;2024-03-23T10:43:45;9.60;99.90
25112;DHT22;13092;51.996;4.458;2024-03-23T10:46:12;9.70;99.90
25112;DHT22;13092;51.996;4.458;2024-03-23T10:48:39;9.70;99.90
25112;DHT22;13092;51.996;4.458;2024-03-23T10:51:07;9.70;99.90
25112;DHT22;13092;51.996;4.458;2024-03-23T10:53:35;9.80;99.90
25112;DHT22;13092;51.996;4.458;2024-03-23T10:56:04;9.70;99.90
25112;DHT22;13092;51.996;4.458;2024-03-23T10:58:37;9.70;99.90
25112;DHT22;13092;51.996;4.458;2024-03-23T11:01:05;9.80;99.90
25112;DHT22;13092;51.996;4.458;2024-03-23T11:03:34;9.70;99.90
25112;DHT22;13092;51.996;4.458;2024-03-23T11:06:00;10.10;99.90
25112;DHT22;13092;51.996;4.458;2024-03-23T11:08:33;9.80;99.90
25112;DHT22;13092;51.996;4.458;2024-03-23T11:11:16;9.80;99.90
25112;DHT22;13092;51.996;4.458;2024-03-23T11:13:49;9.80;99.90
25112;DHT22;13092;51.996;4.458;2024-03-23T11:16:22;9.90;99.90
25112;DHT22;13092;51.996;4.458;2024-03-23T11:18:50;10.10;99.90
25112;DHT22;13092;51.996;4.458;2024-03-23T11:21:51;10.30;99.90
25112;DHT22;13092;51.996;4.458;2024-03-23T11:24:19;10.60;99.90
25112;DHT22;13092;51.996;4.458;2024-03-23T11:26:46;10.70;99.90
25112;DHT22;13092;51.996;4.458;2024-03-23T11:29:15;10.70;99.90
25112;DHT22;13092;51.996;4.458;2024-03-23T11:31:47;10.60;99.90
25112;DHT22;13092;51.996;4.458;2024-03-23T11:34:15;10.60;99.90
25112;DHT22;13092;51.996;4.458;2024-03-23T11:36:42;10.50;99.90
25112;DHT22;13092;51.996;4.458;2024-03-23T11:39:16;10.50;99.90
25112;DHT22;13092;51.996;4.458;2024-03-23T11:41:47;10.50;99.90
25112;DHT22;13092;51.996;4.458;2024-03-23T11:44:16;10.40;99.90
25112;DHT22;13092;51.996;4.458;2024-03-23T11:46:42;10.20;99.90
25112;DHT22;13092;51.996;4.458;2024-03-23T11:49:21;10.00;99.90
25112;DHT22;13092;51.996;4.458;2024-03-23T11:51:48;10.10;99.90
25112;DHT22;13092;51.996;4.458;2024-03-23T11:54:15;9.80;99.90
25112;DHT22;13092;51.996;4.458;2024-03-23T11:56:54;10.30;99.90
25112;DHT22;13092;51.996;4.458;2024-03-23T11:59:37;10.30;99.90
25112;DHT22;13092;51.996;4.458;2024-03-23T12:02:07;10.30;99.90
25112;DHT22;13092;51.996;4.458;2024-03-23T12:04:46;10.20;99.90
25112;DHT22;13092;51.996;4.458;2024-03-23T12:07:15;9.90;98.10
25112;DHT22;13092;51.996;4.458;2024-03-23T12:09:44;9.90;99.90
25112;DHT22;13092;51.996;4.458;2024-03-23T12:12:14;10.00;99.90
25112;DHT22;13092;51.996;4.458;2024-03-23T12:14:42;9.90;99.90
25112;DHT22;13092;51.996;4.458;2024-03-23T12:17:18;9.80;99.90
25112;DHT22;13092;51.996;4.458;2024-03-23T12:19:50;10.00;99.90
25112;DHT22;13092;51.996;4.458;2024-03-23T12:22:23;10.00;99.90
25112;DHT22;13092;51.996;4.458;2024-03-23T12:24:58;10.20;99.90
25112;DHT22;13092;51.996;4.458;2024-03-23T12:27:25;10.00;99.90
25112;DHT22;13092;51.996;4.458;2024-03-23T12:30:11;9.90;99.90
25112;DHT22;13092;51.996;4.458;2024-03-23T12:32:37;9.90;99.90
25112;DHT22;13092;51.996;4.458;2024-03-23T12:35:08;9.80;99.90
25112;DHT22;13092;51.996;4.458;2024-03-23T12:37:35;9.80;99.90
25112;DHT22;13092;51.996;4.458;2024-03-23T12:40:03;9.90;99.90
25112;DHT22;13092;51.996;4.458;2024-03-23T12:42:30;9.90;99.90
25112;DHT22;13092;51.996;4.458;2024-03-23T12:45:07;10.20;99.90
25112;DHT22;13092;51.996;4.458;2024-03-23T12:47:34;10.50;99.90
25112;DHT22;13092;51.996;4.458;2024-03-23T12:50:02;10.60;99.90
25112;DHT22;13092;51.996;4.458;2024-03-23T12:52:36;10.70;99.90
25112;DHT22;13092;51.996;4.458;2024-03-23T12:55:04;10.80;99.90
25112;DHT22;13092;51.996;4.458;2024-03-23T12:57:38;10.90;99.90
25112;DHT22;13092;51.996;4.458;2024-03-23T13:00:09;10.70;99.90
25112;DHT22;13092;51.996;4.458;2024-03-23T13:02:37;10.40;99.20
25112;DHT22;13092;51.996;4.458;2024-03-23T13:05:05;10.10;99.90
25112;DHT22;13092;51.996;4.458;2024-03-23T13:07:34;9.90;99.90
25112;DHT22;13092;51.996;4.458;2024-03-23T13:10:05;9.70;99.90
25112;DHT22;13092;51.996;4.458;2024-03-23T13:12:32;9.70;99.90
25112;DHT22;13092;51.996;4.458;2024-03-23T13:15:03;9.90;99.90
25112;DHT22;13092;51.996;4.458;2024-03-23T13:17:33;9.80;99.90
25112;DHT22;13092;51.996;4.458;2024-03-23T13:20:01;9.80;98.70
25112;DHT22;13092;51.996;4.458;2024-03-23T13:22:30;9.80;99.90
25112;DHT22;13092;51.996;4.458;2024-03-23T13:24:58;9.70;99.90
25112;DHT22;13092;51.996;4.458;2024-03-23T13:27:34;9.80;99.90
25112;DHT22;13092;51.996;4.458;2024-03-23T13:30:24;9.70;99.90
25112;DHT22;13092;51.996;4.458;2024-03-23T13:32:54;9.80;99.90
25112;DHT22;13092;51.996;4.458;2024-03-23T13:35:22;10.00;99.90
25112;DHT22;13092;51.996;4.458;2024-03-23T13:37:53;10.00;99.90
25112;DHT22;13092;51.996;4.458;2024-03-23T13:40:26;9.90;99.90
25112;DHT22;13092;51.996;4.458;2024-03-23T13:43:06;9.90;99.90
25112;DHT22;13092;51.996;4.458;2024-03-23T13:45:35;9.80;99.90
25112;DHT22;13092;51.996;4.458;2024-03-23T13:48:03;9.60;99.90
25112;DHT22;13092;51.996;4.458;2024-03-23T13:50:29;9.60;99.90
25112;DHT22;13092;51.996;4.458;2024-03-23T13:52:56;9.40;99.90
25112;DHT22;13092;51.996;4.458;2024-03-23T13:55:22;9.30;99.90
25112;DHT22;13092;51.996;4.458;2024-03-23T13:57:50;9.30;99.90
25112;DHT22;13092;51.996;4.458;2024-03-23T14:00:20;9.30;99.90
25112;DHT22;13092;51.996;4.458;2024-03-23T14:02:47;9.40;99.90
25112;DHT22;13092;51.996;4.458;2024-03-23T14:05:14;9.10;99.90
25112;DHT22;13092;51.996;4.458;2024-03-23T14:07:41;9.10;99.90
25112;DHT22;13092;51.996;4.458;2024-03-23T14:10:08;9.10;99.90
25112;DHT22;13092;51.996;4.458;2024-03-23T14:12:36;9.10;99.90
25112;DHT22;13092;51.996;4.458;2024-03-23T14:15:05;9.00;99.90
25112;DHT22;13092;51.996;4.458;2024-03-23T14:17:36;9.10;99.90
25112;DHT22;13092;51.996;4.458;2024-03-23T14:20:03;9.20;99.90
25112;DHT22;13092;51.996;4.458;2024-03-23T14:22:31;9.30;99.90
25112;DHT22;13092;51.996;4.458;2024-03-23T14:24:58;9.30;99.90
25112;DHT22;13092;51.996;4.458;2024-03-23T14:27:24;9.40;99.90
25112;DHT22;13092;51.996;4.458;2024-03-23T14:29:51;9.50;99.90
25112;DHT22;13092;51.996;4.458;2024-03-23T14:32:18;9.50;99.90
25112;DHT22;13092;51.996;4.458;2024-03-23T14:34:46;9.70;99.90
25112;DHT22;13092;51.996;4.458;2024-03-23T14:37:13;9.90;99.90
25112;DHT22;13092;51.996;4.458;2024-03-23T14:39:41;9.80;99.90
25112;DHT22;13092;51.996;4.458;2024-03-23T14:42:08;9.80;99.90
25112;DHT22;13092;51.996;4.458;2024-03-23T14:44:35;9.80;99.90
25112;DHT22;13092;51.996;4.458;2024-03-23T14:47:04;9.90;99.90
25112;DHT22;13092;51.996;4.458;2024-03-23T14:49:31;9.80;99.90
25112;DHT22;13092;51.996;4.458;2024-03-23T14:51:59;9.90;99.90
25112;DHT22;13092;51.996;4.458;2024-03-23T14:54:26;10.00;99.90
25112;DHT22;13092;51.996;4.458;2024-03-23T14:56:52;10.10;99.90
25112;DHT22;13092;51.996;4.458;2024-03-23T14:59:20;10.10;99.90
25112;DHT22;13092;51.996;4.458;2024-03-23T15:01:46;10.20;99.90
25112;DHT22;13092;51.996;4.458;2024-03-23T15:04:13;10.20;99.90
25112;DHT22;13092;51.996;4.458;2024-03-23T15:06:39;10.30;99.90
25112;DHT22;13092;51.996;4.458;2024-03-23T15:09:09;10.40;99.90
25112;DHT22;13092;51.996;4.458;2024-03-23T15:11:37;10.60;99.90
25112;DHT22;13092;51.996;4.458;2024-03-23T15:14:04;10.60;99.90
25112;DHT22;13092;51.996;4.458;2024-03-23T15:16:32;10.60;99.90
25112;DHT22;13092;51.996;4.458;2024-03-23T15:19:00;10.70;99.90
25112;DHT22;13092;51.996;4.458;2024-03-23T15:21:26;10.70;99.90
25112;DHT22;13092;51.996;4.458;2024-03-23T15:23:53;10.80;99.90
25112;DHT22;13092;51.996;4.458;2024-03-23T15:26:21;10.40;99.90
25112;DHT22;13092;51.996;4.458;2024-03-23T15:28:48;10.30;99.90
25112;DHT22;13092;51.996;4.458;2024-03-23T15:31:35;10.20;99.90
25112;DHT22;13092;51.996;4.458;2024-03-23T15:34:02;10.20;99.90
25112;DHT22;13092;51.996;4.458;2024-03-23T15:36:31;10.20;99.90
25112;DHT22;13092;51.996;4.458;2024-03-23T15:38:57;10.20;99.90
25112;DHT22;13092;51.996;4.458;2024-03-23T15:41:26;10.20;99.90
25112;DHT22;13092;51.996;4.458;2024-03-23T15:43:52;10.20;99.90
25112;DHT22;13092;51.996;4.458;2024-03-23T15:46:19;10.40;99.90
25112;DHT22;13092;51.996;4.458;2024-03-23T15:48:46;10.60;99.90
25112;DHT22;13092;51.996;4.458;2024-03-23T15:51:14;10.70;99.90
25112;DHT22;13092;51.996;4.458;2024-03-23T15:53:40;10.80;99.90
25112;DHT22;13092;51.996;4.458;2024-03-23T15:56:08;10.90;99.90
25112;DHT22;13092;51.996;4.458;2024-03-23T15:58:35;10.90;99.90
25112;DHT22;13092;51.996;4.458;2024-03-23T16:01:04;10.60;99.90
25112;DHT22;13092;51.996;4.458;2024-03-23T16:03:31;10.70;99.90
25112;DHT22;13092;51.996;4.458;2024-03-23T16:06:00;10.70;99.90
25112;DHT22;13092;51.996;4.458;2024-03-23T16:08:26;10.70;99.90
25112;DHT22;13092;51.996;4.458;2024-03-23T16:10:54;10.60;99.90
25112;DHT22;13092;51.996;4.458;2024-03-23T16:13:20;10.60;99.70
25112;DHT22;13092;51.996;4.458;2024-03-23T16:15:55;10.70;99.90
25112;DHT22;13092;51.996;4.458;2024-03-23T16:18:22;10.80;97.40
25112;DHT22;13092;51.996;4.458;2024-03-23T16:20:54;10.80;96.50
25112;DHT22;13092;51.996;4.458;2024-03-23T16:23:20;10.70;93.80
25112;DHT22;13092;51.996;4.458;2024-03-23T16:25:48;10.60;95.60
25112;DHT22;13092;51.996;4.458;2024-03-23T16:28:25;10.50;97.10
25112;DHT22;13092;51.996;4.458;2024-03-23T16:30:59;10.60;99.90
25112;DHT22;13092;51.996;4.458;2024-03-23T16:33:26;10.60;99.90
25112;DHT22;13092;51.996;4.458;2024-03-23T16:36:01;10.60;99.90
25112;DHT22;13092;51.996;4.458;2024-03-23T16:38:28;10.40;98.50
25112;DHT22;13092;51.996;4.458;2024-03-23T16:40:57;10.20;99.90
25112;DHT22;13092;51.996;4.458;2024-03-23T16:43:24;10.20;99.90